Airfield :
LOGIN :

Register | Disclaimer

   EN    FR    IT 

 










Legend :    VFR   Marginal VFR   IFR   Intensive IFR   Very Intensive IFR
Visi :
Ceiling :
>= 8 km
>= 3000ft
5 to 8 km
1000 to 3000 ft
1500m to 5 km
500 to 1000 ft
800 to 1500m
200 to 500 ft
< 800m
< 200 ft
Symbols :   Thunderstorms  Fog  Heavy snow  Heavy precipitations  Wind > 20 kt
SIGMETs :     Misc.  Thunderstorms  Icing  Turbulence  Mountain Waves  Volcanic Ashes






- Airport Elevation : 231 ft
- IATA code : WTN


EGXW - RAF Waddington

CURRENT METAR :
  • 270820Z 27005KT 6000 -RASN BKN003 OVC010 01/01 Q0997 BECMG 9999 NSW SCT012 RMK YLO2 BECMG GRN

EXPIRED METARs :
  • 270750Z 25006KT 4000 -RASN BKN003 OVC010 01/00 Q0997 TEMPO 3000 -SN SCT002 RMK YLO2 TEMPO AMB
  • 270721Z 24007KT 3500 -SN BKN004 OVC010 01/00 Q0996 TEMPO 2000 SN BKN002 RMK YLO2 TEMPO AMB
  • 270650Z 22007KT 7000 -RASN FEW004 SCT006 OVC012 02/01 Q0996 TEMPO BKN004 RMK YLO1 TEMPO YLO2
  • 270614Z 22006KT 9999 -RASN SCT012 BKN016 OVC022 02/01 Q0996 RMK GRN

TAF TAF EGXW
Valid from the 27 at 09:00 until the 28 at 03:00 UTC


270806Z 2709/2803 28008KT 9999 BKN010
PROB30
TEMPO 2709/2710 3000 -SN BKN004
BECMG 2710/2712 FEW025
BECMG 2712/2714 30018G28KT
BECMG 2717/2719 27013KT



MET'MAP, your aeronautical weather chart ! - Copyright ORBIFLY December 2007 - Disclaimer

ORBIFLY MET'MAP TEAM :

Programming & Development : Alexandra Zaïnal
Concept & original design : Baudouin d'Aumeries
Assistance for programming : Marc-Olivier Méhu
Technical & hardware support : Manuel Goepfert

Contact : metmap@orbifly.com




SOURCES & CREDITS :

   NOAA